Auburndale, Wisconsin
Current Conditions -  °F | °C
As of 9:34 PM on Monday 26 Jan 2015 (Local Time) from KMFI Reporting Station
Overcast Overcast  
Wind Chill: 23°   Ceiling: 1500
Heat Index: 23°   Visibility: 9mi
Dew Point: 20°   Wind: 3mph
Humidity: 88%   Direction: 60°ENE
Pressure: 29.87"   Gusts: NA
Location:  44.63°N, 90.01°W
Report Text: KMFI 270334Z AUTO 06003KT 9SM SCT006 OVC015 M05/M07 A2987 RMK AO2 T10501067
Loading
Personal Weather Stations






























Interactive Weather Map New forecast layout! Learn more

10-Day Weather Forecast

Advertisements
Track Severe Weather on mobile